Time;durP1;ratioP1;P1;durP2;ratioP2;P2;SDS_P1;SDS_P2;PMS_P1;PMS_P2;Temp;Humidity;BMP_temperature;BMP_pressure;BME280_temperature;BME280_humidity;BME280_pressure;Samples;Min_cycle;Max_cycle;Signal;HPM_P1;HPM_P2
2023/03/29 00:01:35;;;;;;;6.38;3.35;;;5.50;99.90;;;;;;5070795;28;20043;-82
2023/03/29 00:04:01;;;;;;;4.32;3.13;;;5.50;99.90;;;;;;5089108;28;20508;-82
2023/03/29 00:06:31;;;;;;;6.10;3.15;;;5.50;99.90;;;;;;5090238;28;20090;-83
2023/03/29 00:08:58;;;;;;;4.07;3.47;;;5.70;99.90;;;;;;5070495;28;20109;-82
2023/03/29 00:11:24;;;;;;;4.75;3.63;;;5.40;99.90;;;;;;5087782;28;20040;-82
2023/03/29 00:13:50;;;;;;;6.97;3.50;;;5.40;99.90;;;;;;5071428;28;20040;-82
2023/03/29 00:16:16;;;;;;;8.77;4.05;;;5.40;99.90;;;;;;5071507;28;20052;-82
2023/03/29 00:18:44;;;;;;;4.13;3.50;;;5.40;99.90;;;;;;5070452;28;20050;-83
2023/03/29 00:21:10;;;;;;;4.75;3.47;;;5.40;99.90;;;;;;5055299;28;20044;-82
2023/03/29 00:23:35;;;;;;;4.03;3.50;;;5.40;99.90;;;;;;5069881;28;20430;-83
2023/03/29 00:26:01;;;;;;;6.22;3.17;;;5.40;99.90;;;;;;5070157;28;20127;-82
2023/03/29 00:28:27;;;;;;;3.78;3.00;;;5.40;99.90;;;;;;5069620;28;20151;-82
2023/03/29 00:30:53;;;;;;;5.07;3.80;;;5.40;99.90;;;;;;5071298;28;20097;-82
2023/03/29 00:33:19;;;;;;;4.97;3.25;;;5.40;99.90;;;;;;5055035;28;20440;-82
2023/03/29 00:35:49;;;;;;;5.80;3.63;;;6.10;99.90;;;;;;5069547;28;20049;-82
2023/03/29 00:38:15;;;;;;;6.13;3.78;;;5.40;99.90;;;;;;5070139;28;20044;-82
2023/03/29 00:40:43;;;;;;;6.72;4.40;;;5.40;99.90;;;;;;5072400;28;20048;-82
2023/03/29 00:43:11;;;;;;;6.80;4.05;;;5.40;99.90;;;;;;5089752;28;20052;-82
2023/03/29 00:45:37;;;;;;;5.15;3.95;;;5.30;99.90;;;;;;5058413;28;20037;-82
2023/03/29 00:48:12;;;;;;;5.28;3.97;;;5.40;99.90;;;;;;5071217;28;20820;-82
2023/03/29 00:51:05;;;;;;;5.47;4.15;;;5.40;99.90;;;;;;5071468;28;20098;-82
2023/03/29 00:53:56;;;;;;;5.15;4.25;;;5.40;99.90;;;;;;5053315;28;20093;-82
2023/03/29 00:56:28;;;;;;;5.20;3.83;;;5.30;99.90;;;;;;5054633;28;20057;-82
2023/03/29 00:59:03;;;;;;;6.70;4.40;;;5.30;99.90;;;;;;5086136;28;20081;-82
2023/03/29 01:01:44;;;;;;;6.13;4.90;;;5.30;99.90;;;;;;5060315;28;20084;-82
2023/03/29 01:04:41;;;;;;;7.00;4.90;;;5.40;99.90;;;;;;5068268;28;20048;-82
2023/03/29 01:07:34;;;;;;;6.15;4.68;;;5.30;99.90;;;;;;5090211;28;20609;-82
2023/03/29 01:10:15;;;;;;;8.82;5.43;;;5.30;99.90;;;;;;5069053;28;20044;-82
2023/03/29 01:12:47;;;;;;;7.40;5.00;;;5.30;99.90;;;;;;5070594;28;20498;-83
2023/03/29 01:15:24;;;;;;;7.88;4.88;;;5.30;99.90;;;;;;5070703;28;20036;-82
2023/03/29 01:17:52;;;;;;;8.15;4.70;;;5.30;99.90;;;;;;5089091;28;20082;-82
2023/03/29 01:20:42;;;;;;;6.80;5.28;;;6.00;99.90;;;;;;5088222;28;20044;-82
2023/03/29 01:23:47;;;;;;;5.15;4.38;;;5.30;99.90;;;;;;5069630;28;20066;-82
2023/03/29 01:26:23;;;;;;;7.45;4.93;;;5.30;99.90;;;;;;5064476;28;20380;-83
2023/03/29 01:29:00;;;;;;;5.57;3.83;;;5.20;99.90;;;;;;5063160;28;20085;-82
2023/03/29 01:31:29;;;;;;;6.32;4.70;;;5.20;99.90;;;;;;5088077;28;20126;-82
2023/03/29 01:34:09;;;;;;;5.50;4.43;;;5.20;99.90;;;;;;5070402;28;20441;-83
2023/03/29 01:36:42;;;;;;;5.40;4.78;;;5.20;99.90;;;;;;5070319;28;20517;-83
2023/03/29 01:39:07;;;;;;;;;;;5.20;99.90;;;;;;5053932;28;20390;-82
2023/03/29 01:41:52;;;;;;;6.07;4.68;;;5.20;99.90;;;;;;5069277;28;19993;-82
2023/03/29 01:44:46;;;;;;;6.10;4.47;;;5.20;99.90;;;;;;5069209;28;20052;-83
2023/03/29 01:47:50;;;;;;;6.05;4.78;;;5.20;99.90;;;;;;5052929;28;20643;-82
2023/03/29 01:50:40;;;;;;;6.70;4.68;;;5.20;99.90;;;;;;5023619;28;20053;-83
2023/03/29 01:53:34;;;;;;;6.63;4.35;;;5.20;99.90;;;;;;5063465;28;20497;-82
2023/03/29 01:56:25;;;;;;;5.95;4.85;;;5.20;99.90;;;;;;5050064;28;20056;-83
2023/03/29 01:59:02;;;;;;;7.75;5.10;;;5.30;99.90;;;;;;5062861;28;20064;-82
2023/03/29 02:01:33;;;;;;;5.95;4.75;;;5.30;99.90;;;;;;5069688;28;20083;-82
2023/03/29 02:04:03;;;;;;;5.45;4.70;;;5.20;99.90;;;;;;5069640;28;20452;-82
2023/03/29 02:06:31;;;;;;;6.45;4.82;;;5.30;99.90;;;;;;5059071;28;20394;-83
2023/03/29 02:08:58;;;;;;;9.23;5.65;;;6.00;99.90;;;;;;5041318;28;20079;-82
2023/03/29 02:11:25;;;;;;;5.38;4.50;;;5.30;99.90;;;;;;5066353;28;20058;-82
2023/03/29 02:13:52;;;;;;;8.93;5.10;;;5.30;99.90;;;;;;5067875;28;20119;-83
2023/03/29 02:16:18;;;;;;;6.60;5.68;;;5.30;99.90;;;;;;5070044;28;20486;-82
2023/03/29 02:18:46;;;;;;;7.05;5.45;;;5.70;99.90;;;;;;5066787;28;20043;-83
2023/03/29 02:21:23;;;;;;;8.40;5.15;;;5.30;99.90;;;;;;5050283;28;20625;-82
2023/03/29 02:23:49;;;;;;;6.18;4.97;;;5.30;99.90;;;;;;5037660;28;20048;-82
2023/03/29 02:26:16;;;;;;;8.02;5.82;;;5.30;99.90;;;;;;5053482;28;20046;-82
2023/03/29 02:28:42;;;;;;;7.25;5.57;;;5.30;99.90;;;;;;5067512;28;20063;-82
2023/03/29 02:31:13;;;;;;;8.80;5.80;;;5.30;99.90;;;;;;5068780;28;20059;-82
2023/03/29 02:34:10;;;;;;;5.88;5.15;;;5.30;99.90;;;;;;5050987;28;20175;-82
2023/03/29 02:36:49;;;;;;;9.50;5.65;;;5.30;99.90;;;;;;5068228;28;20060;-82
2023/03/29 02:39:16;;;;;;;9.20;6.50;;;5.30;99.90;;;;;;5058377;28;20482;-82
2023/03/29 02:41:45;;;;;;;5.82;5.15;;;5.30;99.90;;;;;;5050066;28;20036;-82
2023/03/29 02:44:15;;;;;;;8.18;6.32;;;5.30;99.90;;;;;;5068015;28;20083;-82
2023/03/29 02:46:42;;;;;;;13.20;6.68;;;5.30;99.90;;;;;;5069862;28;20099;-82
2023/03/29 02:49:11;;;;;;;7.43;6.22;;;5.30;99.90;;;;;;5059140;28;20435;-82
2023/03/29 02:51:38;;;;;;;7.57;6.15;;;5.30;99.90;;;;;;5062852;28;20048;-82
2023/03/29 02:54:22;;;;;;;8.60;6.43;;;5.30;99.90;;;;;;5068302;28;20150;-82
2023/03/29 02:56:56;;;;;;;9.50;7.13;;;5.30;99.90;;;;;;5066083;28;20118;-82
2023/03/29 02:59:23;;;;;;;8.68;6.70;;;5.30;99.90;;;;;;5066000;28;20550;-81
2023/03/29 03:01:49;;;;;;;11.77;7.22;;;5.30;99.90;;;;;;5084785;28;20040;-82
2023/03/29 03:04:19;;;;;;;9.18;7.03;;;5.30;99.90;;;;;;5054220;28;20109;-81
2023/03/29 03:06:48;;;;;;;9.05;7.25;;;6.00;99.90;;;;;;5068271;28;20089;-82
2023/03/29 03:09:14;;;;;;;11.50;7.63;;;5.30;99.90;;;;;;5067461;28;20040;-81
2023/03/29 03:11:40;;;;;;;10.32;7.40;;;5.40;99.90;;;;;;5068094;28;20136;-82
2023/03/29 03:14:11;;;;;;;11.05;8.38;;;5.30;99.90;;;;;;5087106;28;20051;-82
2023/03/29 03:16:37;;;;;;;12.35;8.18;;;5.30;99.90;;;;;;5069719;28;20084;-82
2023/03/29 03:19:03;;;;;;;11.35;8.65;;;5.40;99.90;;;;;;5068563;28;20375;-82
2023/03/29 03:21:29;;;;;;;12.60;8.50;;;5.40;99.90;;;;;;5068010;28;20052;-82
2023/03/29 03:23:54;;;;;;;11.35;8.63;;;5.40;99.90;;;;;;5088171;28;20107;-82
2023/03/29 03:26:22;;;;;;;12.73;8.68;;;5.40;99.90;;;;;;5089935;28;20040;-82
2023/03/29 03:28:48;;;;;;;11.93;8.73;;;5.40;99.90;;;;;;5069363;28;20086;-82
2023/03/29 03:31:13;;;;;;;12.05;8.52;;;5.40;99.90;;;;;;5071129;28;20403;-82
2023/03/29 03:33:40;;;;;;;11.75;9.13;;;5.40;99.90;;;;;;5055212;28;20113;-82
2023/03/29 03:36:10;;;;;;;12.30;8.50;;;5.40;99.90;;;;;;5062514;28;20135;-82
2023/03/29 03:38:36;;;;;;;11.70;9.10;;;5.40;99.90;;;;;;5071123;28;20490;-82
2023/03/29 03:41:03;;;;;;;12.77;8.50;;;5.40;99.90;;;;;;5055208;28;20119;-81
2023/03/29 03:43:29;;;;;;;13.25;9.25;;;5.40;99.90;;;;;;5069366;28;20048;-82
2023/03/29 03:45:56;;;;;;;13.45;9.48;;;5.40;99.90;;;;;;5072741;28;20052;-82
2023/03/29 03:48:22;;;;;;;12.70;9.05;;;5.50;99.90;;;;;;5069372;28;20582;-82
2023/03/29 03:50:57;;;;;;;12.70;8.93;;;5.40;99.90;;;;;;5090619;28;20044;-83
2023/03/29 03:53:24;;;;;;;13.32;9.07;;;5.40;99.90;;;;;;5070359;28;20187;-82
2023/03/29 03:55:52;;;;;;;13.63;9.43;;;5.50;99.90;;;;;;5071765;28;20048;-82
2023/03/29 03:58:18;;;;;;;12.32;9.43;;;5.50;99.90;;;;;;5087178;28;20362;-82
2023/03/29 04:00:46;;;;;;;14.13;9.75;;;5.50;99.90;;;;;;5071421;28;20044;-81
2023/03/29 04:03:12;;;;;;;15.15;9.55;;;5.50;99.90;;;;;;5068855;28;20097;-81
2023/03/29 04:05:43;;;;;;;12.98;9.40;;;5.50;99.90;;;;;;5071381;28;20040;-81
2023/03/29 04:08:09;;;;;;;13.93;9.43;;;5.50;99.90;;;;;;5089796;28;20040;-82
2023/03/29 04:10:35;;;;;;;13.50;9.40;;;5.50;99.90;;;;;;5087583;28;20112;-81
2023/03/29 04:13:01;;;;;;;11.88;9.20;;;5.50;99.90;;;;;;5065548;28;20051;-82
2023/03/29 04:15:28;;;;;;;13.90;9.15;;;5.50;99.90;;;;;;5069773;28;20044;-81
2023/03/29 04:17:55;;;;;;;11.43;8.50;;;5.50;99.90;;;;;;5089453;28;20540;-82
2023/03/29 04:20:21;;;;;;;14.07;9.40;;;5.50;99.90;;;;;;5071309;28;20048;-82
2023/03/29 04:22:47;;;;;;;12.95;8.98;;;5.50;99.90;;;;;;5069388;28;20094;-81
2023/03/29 04:25:15;;;;;;;11.60;9.50;;;5.50;99.90;;;;;;5070301;28;20498;-82
2023/03/29 04:27:41;;;;;;;15.57;9.68;;;5.50;99.90;;;;;;5088258;28;20526;-82
2023/03/29 04:30:08;;;;;;;13.73;9.38;;;5.50;99.90;;;;;;5067378;28;20074;-81
2023/03/29 04:32:35;;;;;;;14.07;9.30;;;5.60;99.90;;;;;;5070642;28;20432;-81
2023/03/29 04:35:01;;;;;;;12.45;8.27;;;5.50;99.90;;;;;;5069620;28;20040;-82
2023/03/29 04:37:30;;;;;;;12.52;8.45;;;5.60;99.90;;;;;;5070996;28;20064;-81
2023/03/29 04:39:59;;;;;;;17.10;9.27;;;5.60;99.90;;;;;;5070148;28;20044;-81
2023/03/29 04:42:27;;;;;;;11.20;8.20;;;5.60;99.90;;;;;;5070173;28;20044;-82
2023/03/29 04:44:53;;;;;;;12.32;8.45;;;5.60;99.90;;;;;;5070709;28;20059;-82
2023/03/29 04:47:20;;;;;;;12.40;9.02;;;5.60;99.90;;;;;;5069365;28;20036;-81
2023/03/29 04:49:46;;;;;;;13.73;8.75;;;5.60;99.90;;;;;;5070501;28;20048;-81
2023/03/29 04:52:12;;;;;;;12.35;8.30;;;5.60;99.90;;;;;;5071158;28;20051;-81
2023/03/29 04:54:38;;;;;;;13.73;8.13;;;5.60;99.90;;;;;;5068831;28;20076;-82
2023/03/29 04:57:05;;;;;;;10.82;8.60;;;5.70;99.90;;;;;;5069731;28;20083;-81
2023/03/29 04:59:31;;;;;;;16.05;8.80;;;5.70;99.90;;;;;;5068359;28;20055;-81
2023/03/29 05:01:57;;;;;;;12.60;9.25;;;5.70;99.90;;;;;;5067727;28;20117;-82
2023/03/29 05:04:27;;;;;;;14.35;8.30;;;5.60;99.90;;;;;;5052240;28;20371;-81
2023/03/29 05:06:53;;;;;;;11.40;8.15;;;5.70;99.90;;;;;;5070418;28;20058;-81
2023/03/29 05:09:19;;;;;;;10.88;8.23;;;5.70;99.90;;;;;;5069347;28;20051;-81
2023/03/29 05:11:45;;;;;;;10.98;8.75;;;5.70;99.90;;;;;;5070220;28;20059;-81
2023/03/29 05:14:11;;;;;;;12.88;8.88;;;5.70;99.90;;;;;;5066273;28;20040;-82
2023/03/29 05:16:36;;;;;;;22.98;13.65;;;5.70;99.90;;;;;;5033841;28;20040;-82
2023/03/29 05:19:03;;;;;;;26.30;14.95;;;5.70;99.90;;;;;;5050125;28;20036;-82
2023/03/29 05:21:28;;;;;;;23.23;13.82;;;5.70;99.90;;;;;;5066556;28;20077;-83
2023/03/29 05:23:54;;;;;;;15.90;9.15;;;5.60;99.90;;;;;;5068968;28;20793;-82
2023/03/29 05:26:21;;;;;;;20.48;11.18;;;5.60;99.90;;;;;;5054161;28;20040;-83
2023/03/29 05:28:50;;;;;;;20.30;13.02;;;5.70;99.90;;;;;;5069475;28;20505;-84
2023/03/29 05:31:16;;;;;;;16.27;11.95;;;5.60;99.90;;;;;;5064871;28;20426;-83
2023/03/29 05:33:42;;;;;;;12.05;8.50;;;5.60;99.90;;;;;;5066242;28;20051;-83
2023/03/29 05:36:13;;;;;;;11.32;8.27;;;5.60;99.90;;;;;;5062877;28;20053;-83
2023/03/29 05:38:40;;;;;;;13.60;8.70;;;5.60;99.90;;;;;;5066082;28;20528;-83
2023/03/29 05:41:05;;;;;;;14.38;8.95;;;5.60;99.90;;;;;;5061502;28;20048;-83
2023/03/29 05:43:32;;;;;;;12.65;8.23;;;5.60;99.90;;;;;;5063892;28;20512;-83
2023/03/29 05:45:57;;;;;;;10.00;7.88;;;5.50;99.90;;;;;;5067058;28;20040;-84
2023/03/29 05:48:26;;;;;;;13.55;8.25;;;5.60;99.90;;;;;;5039804;28;20074;-85
2023/03/29 05:50:54;;;;;;;12.55;7.65;;;5.60;99.90;;;;;;5066429;28;20048;-85
2023/03/29 05:53:21;;;;;;;10.70;8.00;;;6.30;99.90;;;;;;5066271;28;20355;-84
2023/03/29 05:55:47;;;;;;;11.45;7.60;;;5.60;99.90;;;;;;5065524;28;20049;-84
2023/03/29 05:58:14;;;;;;;12.23;8.30;;;5.60;99.90;;;;;;5066759;28;20063;-84
2023/03/29 06:00:40;;;;;;;12.85;8.40;;;5.40;99.90;;;;;;5049857;28;20125;-84
2023/03/29 06:03:07;;;;;;;11.77;8.00;;;5.60;99.90;;;;;;5065840;28;20047;-84
2023/03/29 06:05:34;;;;;;;13.65;8.27;;;5.60;99.90;;;;;;5064713;28;20129;-84
2023/03/29 06:08:00;;;;;;;12.73;7.93;;;5.60;99.90;;;;;;5045474;28;20483;-84
2023/03/29 06:10:27;;;;;;;11.85;8.20;;;5.60;99.90;;;;;;5046553;28;20048;-84
2023/03/29 06:12:53;;;;;;;14.00;8.00;;;5.60;99.90;;;;;;5046100;28;20053;-84
2023/03/29 06:15:20;;;;;;;10.38;7.78;;;5.60;99.90;;;;;;5063549;28;20059;-83
2023/03/29 06:17:46;;;;;;;11.77;8.32;;;5.70;99.90;;;;;;5066317;28;20181;-83
2023/03/29 06:20:16;;;;;;;12.35;8.05;;;5.70;99.90;;;;;;5065850;28;20135;-85
2023/03/29 06:22:42;;;;;;;11.85;8.32;;;5.70;99.90;;;;;;5060180;28;20110;-83
2023/03/29 06:25:09;;;;;;;11.07;8.10;;;6.00;99.90;;;;;;5067158;28;20037;-84
2023/03/29 06:27:35;;;;;;;12.13;8.18;;;5.80;99.90;;;;;;5066659;28;20056;-82
2023/03/29 06:30:05;;;;;;;14.70;8.55;;;5.80;99.90;;;;;;5065777;28;20044;-83
2023/03/29 06:32:33;;;;;;;11.10;7.85;;;5.90;99.90;;;;;;5065469;28;20045;-82
2023/03/29 06:34:59;;;;;;;14.30;8.50;;;5.90;99.90;;;;;;5065753;28;20123;-81
2023/03/29 06:37:24;;;;;;;13.30;8.63;;;6.00;99.90;;;;;;5065388;28;20229;-81
2023/03/29 06:39:51;;;;;;;13.15;7.88;;;6.00;99.90;;;;;;5065355;28;20074;-81
2023/03/29 06:42:21;;;;;;;12.35;7.20;;;6.10;99.90;;;;;;5065366;28;20083;-82
2023/03/29 06:44:48;;;;;;;11.80;7.88;;;6.00;99.90;;;;;;5048361;28;20056;-82
2023/03/29 06:47:15;;;;;;;10.77;7.97;;;6.10;99.90;;;;;;5065959;28;20048;-82
2023/03/29 06:49:40;;;;;;;13.60;8.13;;;6.10;99.90;;;;;;5066044;28;20631;-81
2023/03/29 06:52:07;;;;;;;19.13;10.82;;;6.20;99.90;;;;;;5064362;28;20066;-82
2023/03/29 06:54:32;;;;;;;20.70;11.18;;;6.20;99.90;;;;;;5065010;28;20082;-80
2023/03/29 06:56:58;;;;;;;11.82;8.23;;;6.20;99.90;;;;;;5063470;28;20076;-81
2023/03/29 06:59:25;;;;;;;13.35;8.50;;;6.20;99.90;;;;;;5052407;28;20403;-82
2023/03/29 07:01:54;;;;;;;11.32;8.18;;;6.30;99.90;;;;;;5069891;28;20093;-81
2023/03/29 07:04:22;;;;;;;10.93;8.02;;;6.30;99.90;;;;;;5069181;28;20048;-81
2023/03/29 07:06:57;;;;;;;11.75;8.60;;;6.30;99.90;;;;;;5070156;28;20473;-81
2023/03/29 07:09:25;;;;;;;12.40;7.80;;;6.40;99.90;;;;;;5052753;28;20051;-80
2023/03/29 07:11:50;;;;;;;9.98;7.60;;;6.40;99.90;;;;;;5052999;28;20140;-81
2023/03/29 07:14:16;;;;;;;9.00;6.82;;;6.40;99.90;;;;;;5069260;28;20159;-81
2023/03/29 07:16:42;;;;;;;10.25;7.43;;;6.40;99.90;;;;;;5069319;28;20594;-80
2023/03/29 07:19:08;;;;;;;12.38;7.40;;;6.50;99.90;;;;;;5069132;28;20585;-80
2023/03/29 07:21:34;;;;;;;10.77;7.32;;;6.50;99.90;;;;;;5052438;28;20120;-81
2023/03/29 07:24:00;;;;;;;13.30;9.00;;;6.50;99.90;;;;;;5068457;28;20118;-81
2023/03/29 07:26:27;;;;;;;10.25;7.50;;;6.60;99.90;;;;;;5052090;28;20079;-81
2023/03/29 07:28:53;;;;;;;12.48;8.05;;;7.10;99.90;;;;;;5068802;28;20060;-80
2023/03/29 07:31:19;;;;;;;14.23;8.23;;;6.60;99.90;;;;;;5052686;28;20036;-80
2023/03/29 07:33:46;;;;;;;9.52;6.97;;;6.70;99.90;;;;;;5052855;28;20121;-80
2023/03/29 07:36:11;;;;;;;10.95;6.97;;;6.70;99.90;;;;;;5068717;28;20071;-80
2023/03/29 07:38:37;;;;;;;10.23;7.60;;;6.70;99.90;;;;;;5050906;28;20045;-81
2023/03/29 07:41:09;;;;;;;9.05;7.10;;;6.80;99.90;;;;;;5068222;28;20110;-80
2023/03/29 07:43:35;;;;;;;9.80;6.78;;;7.30;99.90;;;;;;5069198;28;20097;-80
2023/03/29 07:46:03;;;;;;;8.40;6.55;;;6.80;99.90;;;;;;5068399;28;20037;-80
2023/03/29 07:48:29;;;;;;;9.55;6.97;;;7.10;99.90;;;;;;5069831;28;20137;-80
2023/03/29 07:50:55;;;;;;;10.20;6.97;;;6.90;99.90;;;;;;5069136;28;20052;-80
2023/03/29 07:53:21;;;;;;;9.52;6.70;;;6.90;99.90;;;;;;5048184;28;20052;-81
2023/03/29 07:55:53;;;;;;;8.20;6.15;;;7.00;99.90;;;;;;5048967;28;20075;-81
2023/03/29 07:58:19;;;;;;;8.63;6.28;;;7.00;99.90;;;;;;5048634;28;20134;-80
2023/03/29 08:00:44;;;;;;;9.32;6.82;;;7.00;99.90;;;;;;5058357;28;20044;-81
2023/03/29 08:03:11;;;;;;;10.35;6.30;;;7.00;99.90;;;;;;5068729;28;20088;-82
2023/03/29 08:05:38;;;;;;;9.45;7.18;;;7.10;99.90;;;;;;5066279;28;20045;-81
2023/03/29 08:08:05;;;;;;;9.45;6.28;;;7.10;99.90;;;;;;5061132;28;20036;-81
2023/03/29 08:10:33;;;;;;;8.35;6.85;;;7.10;99.90;;;;;;5065708;28;20162;-81
2023/03/29 08:12:59;;;;;;;12.50;7.03;;;7.20;99.90;;;;;;5066078;28;20059;-81
2023/03/29 08:15:26;;;;;;;10.00;6.32;;;7.20;99.90;;;;;;5069058;28;20056;-80
2023/03/29 08:17:55;;;;;;;9.52;6.50;;;7.20;99.90;;;;;;5070031;28;20040;-80
2023/03/29 08:20:21;;;;;;;9.50;6.72;;;7.30;99.90;;;;;;5068842;28;20047;-80
2023/03/29 08:22:47;;;;;;;9.50;6.40;;;7.70;99.90;;;;;;5066840;28;20331;-80
2023/03/29 08:25:16;;;;;;;8.00;6.65;;;7.40;99.90;;;;;;5068253;28;20063;-80
2023/03/29 08:27:42;;;;;;;8.45;6.63;;;7.50;99.90;;;;;;5050914;28;20332;-80
2023/03/29 08:30:09;;;;;;;9.20;6.60;;;7.70;99.90;;;;;;5049792;28;20407;-80
2023/03/29 08:32:35;;;;;;;8.35;6.35;;;7.80;99.90;;;;;;5062260;28;20051;-81
2023/03/29 08:35:03;;;;;;;8.30;6.40;;;7.90;99.90;;;;;;5062986;28;20386;-80
2023/03/29 08:37:30;;;;;;;9.52;6.38;;;8.00;99.90;;;;;;5052743;28;20165;-80
2023/03/29 08:39:56;;;;;;;9.45;7.00;;;8.10;99.90;;;;;;5066956;28;20045;-80
2023/03/29 08:42:30;;;;;;;7.55;6.25;;;8.20;99.90;;;;;;5069152;28;20461;-79
2023/03/29 08:45:09;;;;;;;7.88;5.90;;;8.20;99.90;;;;;;5069612;28;20131;-80
2023/03/29 08:48:07;;;;;;;8.98;6.20;;;8.30;99.90;;;;;;5069400;28;20406;-80
2023/03/29 08:50:37;;;;;;;9.25;6.32;;;8.40;99.90;;;;;;5067344;28;20048;-80
2023/03/29 08:53:20;;;;;;;7.72;6.00;;;8.50;99.90;;;;;;5066429;28;20068;-81
2023/03/29 08:55:47;;;;;;;8.40;6.22;;;8.60;99.90;;;;;;5066362;28;20090;-81
2023/03/29 08:58:17;;;;;;;9.55;6.07;;;8.70;99.90;;;;;;5065622;28;20048;-79
2023/03/29 09:00:50;;;;;;;8.82;5.93;;;8.80;99.90;;;;;;5067544;28;20083;-80
2023/03/29 09:03:20;;;;;;;;;;;9.00;99.90;;;;;;5068096;28;20072;-80
2023/03/29 09:05:51;;;;;;;9.27;6.55;;;9.20;99.90;;;;;;5067426;28;19920;-80
2023/03/29 09:08:18;;;;;;;8.25;5.85;;;9.30;99.90;;;;;;5065916;28;20093;-80
2023/03/29 09:11:03;;;;;;;7.13;6.43;;;9.60;99.90;;;;;;5068013;28;20114;-80
2023/03/29 09:13:47;;;;;;;8.27;5.93;;;9.50;99.90;;;;;;5067796;28;20044;-80
2023/03/29 09:16:22;;;;;;;11.35;6.40;;;9.70;99.90;;;;;;5066157;28;20040;-80
2023/03/29 09:19:08;;;;;;;9.32;6.13;;;9.70;99.90;;;;;;5067307;28;20483;-80
2023/03/29 09:21:57;;;;;;;13.00;6.63;;;9.70;99.90;;;;;;5067601;28;20048;-79
2023/03/29 09:24:31;;;;;;;12.93;6.45;;;9.70;99.90;;;;;;5067223;28;20049;-81
2023/03/29 09:27:07;;;;;;;8.45;5.95;;;10.20;99.90;;;;;;5068573;28;20055;-79
2023/03/29 09:29:55;;;;;;;8.50;5.75;;;10.00;99.90;;;;;;5067128;28;20044;-79
2023/03/29 09:32:27;;;;;;;7.80;6.05;;;10.10;99.90;;;;;;5063230;28;20055;-78
2023/03/29 09:35:21;;;;;;;8.20;5.93;;;10.20;99.90;;;;;;5030322;28;20053;-78
2023/03/29 09:37:50;;;;;;;7.45;5.65;;;10.30;99.90;;;;;;5029216;28;20526;-78
2023/03/29 09:40:41;;;;;;;8.60;5.78;;;10.40;99.90;;;;;;5066943;28;20056;-78
2023/03/29 09:43:13;;;;;;;7.30;5.90;;;10.50;99.90;;;;;;5066586;28;20475;-78
2023/03/29 09:45:39;;;;;;;;;;;10.60;99.90;;;;;;5050898;28;20471;-78
2023/03/29 09:48:18;;;;;;;10.50;6.40;;;10.60;99.90;;;;;;5065250;28;19931;-80
2023/03/29 09:50:52;;;;;;;11.35;5.90;;;10.70;99.90;;;;;;5066543;28;20506;-80
2023/03/29 09:53:19;;;;;;;11.25;6.63;;;10.70;99.90;;;;;;5065139;28;20493;-80
2023/03/29 09:55:47;;;;;;;9.25;7.22;;;10.70;99.90;;;;;;5068118;28;20395;-78
2023/03/29 09:58:21;;;;;;;8.13;5.45;;;11.30;99.90;;;;;;5067924;28;20055;-79
2023/03/29 10:00:47;;;;;;;9.38;6.60;;;10.80;99.90;;;;;;5067656;28;20055;-78
2023/03/29 10:03:19;;;;;;;8.45;6.07;;;10.90;99.90;;;;;;5048962;28;20055;-78
2023/03/29 10:05:46;;;;;;;7.40;6.15;;;10.80;99.90;;;;;;5066152;28;20045;-78
2023/03/29 10:08:37;;;;;;;10.55;6.88;;;10.70;99.90;;;;;;5048992;28;20044;-78
2023/03/29 10:11:12;;;;;;;8.65;6.85;;;10.70;99.90;;;;;;5057781;28;20091;-78
2023/03/29 10:13:45;;;;;;;11.10;7.28;;;10.80;99.90;;;;;;5047991;28;20127;-80
2023/03/29 10:16:20;;;;;;;8.90;6.57;;;10.80;99.90;;;;;;5063249;28;20494;-79
2023/03/29 10:18:48;;;;;;;9.77;6.90;;;10.90;99.90;;;;;;5065813;28;20048;-80
2023/03/29 10:21:16;;;;;;;11.82;8.23;;;10.90;99.90;;;;;;5068150;28;20139;-79
2023/03/29 10:23:42;;;;;;;10.35;7.25;;;11.00;99.90;;;;;;5067607;28;20044;-80
2023/03/29 10:26:37;;;;;;;11.50;7.90;;;10.90;99.90;;;;;;5068264;28;20066;-79
2023/03/29 10:29:06;;;;;;;9.88;7.28;;;11.00;99.90;;;;;;5065265;28;20052;-79
2023/03/29 10:31:32;;;;;;;11.60;7.75;;;11.10;99.90;;;;;;5066284;28;20506;-79
2023/03/29 10:34:04;;;;;;;9.48;7.05;;;11.20;99.90;;;;;;5057925;28;20217;-79
2023/03/29 10:36:29;;;;;;;11.50;8.50;;;11.20;99.90;;;;;;5070983;28;20376;-78
2023/03/29 10:39:00;;;;;;;13.60;8.38;;;11.20;99.90;;;;;;5071409;28;20063;-79
2023/03/29 10:41:27;;;;;;;10.18;7.57;;;11.40;99.90;;;;;;5067807;28;20064;-79
2023/03/29 10:43:53;;;;;;;10.63;7.55;;;11.20;99.90;;;;;;5071037;28;20550;-79
2023/03/29 10:46:24;;;;;;;9.23;7.78;;;11.40;99.90;;;;;;5070880;28;20394;-79
2023/03/29 10:48:54;;;;;;;10.07;7.60;;;11.50;99.90;;;;;;5068624;28;20131;-79
2023/03/29 10:51:22;;;;;;;9.57;7.82;;;11.60;99.90;;;;;;5069875;28;20056;-79
2023/03/29 10:53:47;;;;;;;10.65;7.97;;;11.60;99.90;;;;;;5069879;28;20055;-78
2023/03/29 10:56:30;;;;;;;10.55;8.43;;;11.60;99.90;;;;;;5069479;28;20041;-79
2023/03/29 10:59:22;;;;;;;11.13;8.18;;;11.80;99.90;;;;;;5069803;28;20052;-79
2023/03/29 11:02:12;;;;;;;13.10;9.98;;;11.90;99.90;;;;;;5069594;28;20044;-78
2023/03/29 11:05:00;;;;;;;15.13;10.55;;;11.90;99.90;;;;;;5071522;28;20054;-78
2023/03/29 11:07:45;;;;;;;13.20;9.23;;;11.90;99.90;;;;;;5070040;28;20121;-78
2023/03/29 11:10:20;;;;;;;20.90;9.55;;;12.00;99.90;;;;;;5069153;28;20127;-78
2023/03/29 11:13:00;;;;;;;12.02;7.43;;;12.10;99.90;;;;;;5069832;28;20048;-77
2023/03/29 11:16:09;;;;;;;9.25;7.60;;;12.20;99.90;;;;;;5069698;28;20055;-78
2023/03/29 11:18:43;;;;;;;9.70;7.93;;;12.20;99.90;;;;;;5068754;28;20514;-78
2023/03/29 11:21:39;;;;;;;14.30;7.80;;;12.30;99.90;;;;;;5069110;28;20475;-77
2023/03/29 11:24:26;;;;;;;14.00;7.85;;;12.40;99.90;;;;;;5068870;28;20446;-79
2023/03/29 11:27:21;;;;;;;9.35;6.75;;;12.50;99.90;;;;;;5068537;28;20056;-78
2023/03/29 11:30:07;;;;;;;11.48;6.82;;;12.60;99.90;;;;;;5067936;28;20052;-78
2023/03/29 11:33:09;;;;;;;9.02;7.57;;;12.70;99.90;;;;;;5069505;28;20056;-79
2023/03/29 11:35:57;;;;;;;8.25;6.85;;;12.90;99.90;;;;;;5068643;28;20497;-79
2023/03/29 11:38:32;;;;;;;7.63;6.40;;;13.10;99.90;;;;;;5068347;28;20098;-79
2023/03/29 11:41:17;;;;;;;9.43;6.97;;;13.20;99.90;;;;;;5069497;28;20048;-79
2023/03/29 11:44:04;;;;;;;10.35;8.43;;;13.20;99.90;;;;;;5059725;28;20414;-81
2023/03/29 11:46:36;;;;;;;10.52;8.65;;;13.30;99.90;;;;;;5068825;28;20491;-81
2023/03/29 11:49:28;;;;;;;8.90;6.03;;;13.40;99.90;;;;;;5052402;28;20048;-81
2023/03/29 11:52:24;;;;;;;7.78;6.60;;;13.50;99.90;;;;;;5069285;28;20052;-81
2023/03/29 11:55:15;;;;;;;8.30;7.13;;;13.50;99.90;;;;;;5068900;28;20141;-81
2023/03/29 11:57:52;;;;;;;7.32;6.40;;;13.70;99.90;;;;;;5050428;28;20048;-81
2023/03/29 12:00:27;;;;;;;8.02;6.65;;;13.80;99.90;;;;;;5068357;28;20048;-81
2023/03/29 12:03:11;;;;;;;10.60;6.88;;;13.80;99.90;;;;;;5068060;28;20080;-81
2023/03/29 12:05:58;;;;;;;9.77;6.72;;;13.90;99.90;;;;;;5068401;28;20147;-81
2023/03/29 12:08:49;;;;;;;16.73;9.70;;;13.90;99.90;;;;;;5067456;28;20037;-81
2023/03/29 12:11:37;;;;;;;8.90;7.03;;;14.00;99.90;;;;;;5068764;28;20061;-81
2023/03/29 12:14:09;;;;;;;9.82;7.60;;;14.00;99.90;;;;;;5067299;28;20068;-81
2023/03/29 12:16:50;;;;;;;8.98;6.90;;;14.00;99.90;;;;;;5068569;28;20076;-81
2023/03/29 12:19:43;;;;;;;8.70;6.57;;;14.20;99.90;;;;;;5068318;28;20674;-82
2023/03/29 12:22:08;;;;;;;8.10;6.65;;;14.30;99.90;;;;;;5067714;28;20056;-80
2023/03/29 12:24:39;;;;;;;7.70;6.20;;;14.30;99.90;;;;;;5068771;28;20048;-82
2023/03/29 12:27:21;;;;;;;7.45;5.97;;;14.40;99.90;;;;;;5051854;28;20051;-81
2023/03/29 12:30:33;;;;;;;7.40;6.68;;;14.20;99.90;;;;;;5065393;28;20048;-81
2023/03/29 12:33:14;;;;;;;8.05;6.28;;;14.10;99.90;;;;;;5023066;28;20052;-81
2023/03/29 12:36:08;;;;;;;9.02;6.95;;;13.90;99.90;;;;;;5065810;28;20059;-80
2023/03/29 12:38:36;;;;;;;8.73;6.85;;;13.90;99.90;;;;;;5029754;28;20057;-81
2023/03/29 12:41:18;;;;;;;8.43;6.43;;;13.80;99.90;;;;;;5045863;28;20128;-81
2023/03/29 12:43:45;;;;;;;8.00;7.00;;;13.70;99.90;;;;;;5046707;28;20411;-81
2023/03/29 12:46:21;;;;;;;8.98;6.75;;;13.70;99.90;;;;;;5044430;28;20072;-81
2023/03/29 12:48:52;;;;;;;8.77;7.18;;;13.80;99.90;;;;;;5046688;28;20526;-80
2023/03/29 12:51:28;;;;;;;13.73;7.28;;;13.80;99.90;;;;;;5046604;28;20091;-81
2023/03/29 12:54:07;;;;;;;9.18;6.97;;;13.90;99.90;;;;;;5046216;28;20590;-82
2023/03/29 12:56:40;;;;;;;9.05;7.50;;;13.90;99.90;;;;;;5030598;28;20061;-81
2023/03/29 12:59:09;;;;;;;8.52;7.38;;;14.10;99.90;;;;;;5047012;28;20056;-81
2023/03/29 13:01:40;;;;;;;10.85;7.97;;;14.20;99.90;;;;;;5031264;28;20529;-81
2023/03/29 13:04:19;;;;;;;10.13;7.97;;;14.20;99.90;;;;;;5047481;28;20088;-81
2023/03/29 13:06:47;;;;;;;7.57;6.63;;;14.40;99.90;;;;;;5030558;28;20076;-81
2023/03/29 13:09:28;;;;;;;10.23;7.00;;;14.30;99.90;;;;;;5030293;28;20721;-80
2023/03/29 13:11:56;;;;;;;9.63;7.07;;;14.80;99.90;;;;;;5046730;28;20053;-81
2023/03/29 13:14:26;;;;;;;9.40;6.75;;;14.50;99.90;;;;;;5030706;28;20128;-81
2023/03/29 13:16:52;;;;;;;9.15;6.75;;;14.60;99.90;;;;;;5046711;28;20051;-81